Time;durP1;ratioP1;P1;durP2;ratioP2;P2;SDS_P1;SDS_P2;PMS_P1;PMS_P2;Temp;Humidity;BMP_temperature;BMP_pressure;BME280_temperature;BME280_humidity;BME280_pressure;Samples;Min_cycle;Max_cycle;Signal;HPM_P1;HPM_P2
2022/11/29 00:01:36;;;;;;;50.00;13.45;;;5.40;99.90;;;;;;5009999;28;20295;-62
2022/11/29 00:04:05;;;;;;;71.40;14.60;;;5.40;99.90;;;;;;5031717;28;20045;-66
2022/11/29 00:06:33;;;;;;;78.15;15.85;;;5.40;99.90;;;;;;5030187;28;20057;-63
2022/11/29 00:09:05;;;;;;;57.35;14.77;;;5.40;99.90;;;;;;5026572;28;20042;-63
2022/11/29 00:14:23;;;;;;;75.18;15.32;;;8.10;99.90;;;;;;5023772;28;20054;-63
2022/11/29 00:16:53;;;;;;;93.50;15.43;;;5.30;99.90;;;;;;5021347;28;20048;-63
2022/11/29 00:19:22;;;;;;;100.72;15.68;;;5.30;99.90;;;;;;5028678;28;20060;-63
2022/11/29 00:21:49;;;;;;;73.85;15.85;;;5.30;99.90;;;;;;5026844;28;20041;-64
2022/11/29 00:24:17;;;;;;;69.82;15.63;;;5.30;99.90;;;;;;5041640;28;20045;-63
2022/11/29 00:26:45;;;;;;;54.53;15.65;;;5.30;99.90;;;;;;5023202;28;20049;-63
2022/11/29 00:29:13;;;;;;;70.88;16.58;;;5.30;99.90;;;;;;5043261;28;20390;-63
2022/11/29 00:31:41;;;;;;;84.13;16.05;;;5.30;99.90;;;;;;5021767;28;20049;-63
2022/11/29 00:34:10;;;;;;;71.60;17.17;;;5.30;99.90;;;;;;5058236;28;20369;-63
2022/11/29 00:36:38;;;;;;;57.00;17.00;;;5.30;99.90;;;;;;5027207;28;20484;-66
2022/11/29 00:39:06;;;;;;;57.00;16.92;;;5.20;99.90;;;;;;5027827;28;20053;-64
2022/11/29 00:41:33;;;;;;;60.03;15.88;;;5.20;99.90;;;;;;5027148;28;20056;-64
2022/11/29 00:44:01;;;;;;;65.93;19.88;;;5.20;99.90;;;;;;5049278;28;20068;-63
2022/11/29 00:46:29;;;;;;;70.53;20.02;;;5.20;99.90;;;;;;5024078;28;20044;-63
2022/11/29 00:48:56;;;;;;;87.22;23.13;;;5.20;99.90;;;;;;5027165;28;20056;-65
2022/11/29 00:51:24;;;;;;;91.80;21.23;;;5.20;99.90;;;;;;5028547;28;20050;-63
2022/11/29 00:53:51;;;;;;;106.88;21.27;;;5.20;99.90;;;;;;5025808;28;20064;-64
2022/11/29 00:56:19;;;;;;;93.78;21.17;;;5.30;99.90;;;;;;5017482;28;20056;-64
2022/11/29 00:58:48;;;;;;;130.43;20.77;;;5.30;99.90;;;;;;5017304;28;20056;-63
2022/11/29 01:01:16;;;;;;;170.07;22.20;;;5.30;99.90;;;;;;5007235;28;20050;-64
2022/11/29 01:03:43;;;;;;;153.02;23.33;;;5.30;99.90;;;;;;5012339;28;20425;-84
2022/11/29 01:06:14;;;;;;;127.25;25.10;;;5.30;99.90;;;;;;5024045;28;20040;-82
2022/11/29 01:08:42;;;;;;;139.27;23.75;;;5.30;99.90;;;;;;5023931;28;20056;-64
2022/11/29 01:11:16;;;;;;;123.90;24.30;;;5.30;99.90;;;;;;5026372;28;20045;-74
2022/11/29 01:13:44;;;;;;;103.28;22.38;;;5.30;99.90;;;;;;5020267;28;20046;-68
2022/11/29 01:16:13;;;;;;;117.22;21.02;;;5.30;99.90;;;;;;5011242;28;20033;-64
2022/11/29 01:18:41;;;;;;;150.63;23.73;;;5.20;99.90;;;;;;5024539;28;20044;-71
2022/11/29 01:21:12;;;;;;;139.88;21.75;;;5.20;99.90;;;;;;5026688;28;20042;-70
2022/11/29 01:23:41;;;;;;;148.45;23.88;;;5.00;99.90;;;;;;5028033;28;20209;-83
2022/11/29 01:26:12;;;;;;;115.32;19.60;;;5.10;99.90;;;;;;5024567;28;20046;-78
2022/11/29 01:28:40;;;;;;;152.80;20.65;;;5.00;99.90;;;;;;5023007;28;20060;-84
2022/11/29 01:31:09;;;;;;;144.82;21.15;;;5.10;99.90;;;;;;5010362;28;20053;-73
2022/11/29 01:33:37;;;;;;;139.32;20.35;;;5.00;99.90;;;;;;5025991;28;20053;-80
2022/11/29 01:36:06;;;;;;;145.93;20.48;;;5.10;99.90;;;;;;5030368;28;20057;-76
2022/11/29 01:38:34;;;;;;;130.73;19.33;;;5.10;99.90;;;;;;5043238;28;20497;-82
2022/11/29 01:41:09;;;;;;;121.20;19.05;;;5.10;99.90;;;;;;5041674;28;20674;-78
2022/11/29 01:44:25;;;;;;;142.15;19.55;;;5.20;99.90;;;;;;5049605;28;20053;-63
2022/11/29 01:46:53;;;;;;;143.05;18.95;;;5.20;99.90;;;;;;4968640;28;20055;-67
2022/11/29 01:49:37;;;;;;;148.60;18.15;;;5.10;99.90;;;;;;5007095;28;20065;-72
2022/11/29 01:52:30;;;;;;;115.20;18.13;;;5.10;99.90;;;;;;5026422;28;20041;-64
2022/11/29 01:55:02;;;;;;;90.20;15.90;;;5.10;99.90;;;;;;5026336;28;20057;-63
2022/11/29 01:57:32;;;;;;;119.70;16.42;;;5.20;99.90;;;;;;5025482;28;20390;-66
2022/11/29 02:00:09;;;;;;;107.32;16.23;;;5.10;99.90;;;;;;5023505;28;20057;-75
2022/11/29 02:02:47;;;;;;;130.50;15.47;;;5.20;99.90;;;;;;5026090;28;20405;-84
2022/11/29 02:05:17;;;;;;;144.48;15.38;;;5.20;99.90;;;;;;5045862;28;20312;-77
2022/11/29 02:07:49;;;;;;;109.38;15.00;;;5.10;99.90;;;;;;5011380;28;20062;-84
2022/11/29 02:10:18;;;;;;;155.32;17.77;;;5.70;99.90;;;;;;5025987;28;20057;-81
2022/11/29 02:13:09;;;;;;;123.90;15.25;;;5.10;99.90;;;;;;5023941;28;20052;-85
2022/11/29 02:15:57;;;;;;;188.05;16.88;;;5.10;99.90;;;;;;5023194;28;20049;-66
2022/11/29 02:18:28;;;;;;;110.28;14.15;;;5.00;99.90;;;;;;5021274;28;20057;-85
2022/11/29 02:21:39;;;;;;;173.18;15.70;;;5.10;99.90;;;;;;5020830;28;20050;-72
2022/11/29 02:24:24;;;;;;;115.57;14.88;;;5.10;99.90;;;;;;5036050;28;20527;-74
2022/11/29 02:27:10;;;;;;;129.80;15.68;;;5.00;99.90;;;;;;5046725;28;20053;-78
2022/11/29 02:29:56;;;;;;;137.13;15.35;;;5.10;99.90;;;;;;5027756;28;20477;-88
2022/11/29 02:32:42;;;;;;;136.85;14.65;;;5.10;99.90;;;;;;5008671;28;20046;-63
2022/11/29 02:35:35;;;;;;;137.38;14.50;;;5.00;99.90;;;;;;5020196;28;20049;-63
2022/11/29 02:38:28;;;;;;;99.20;13.20;;;5.00;99.90;;;;;;5042591;28;20054;-65
2022/11/29 02:40:58;;;;;;;132.63;15.85;;;5.00;99.90;;;;;;5028343;28;20053;-63
2022/11/29 02:43:35;;;;;;;57.35;12.00;;;5.00;99.90;;;;;;5023675;28;20392;-62
2022/11/29 02:46:22;;;;;;;114.70;12.18;;;5.00;99.90;;;;;;5015294;28;20057;-67
2022/11/29 02:49:10;;;;;;;85.07;13.10;;;5.00;99.90;;;;;;5029756;28;20049;-63
2022/11/29 02:51:49;;;;;;;52.00;11.18;;;5.00;99.90;;;;;;5032044;28;20084;-63
2022/11/29 02:54:28;;;;;;;73.63;11.82;;;5.00;99.90;;;;;;5031428;28;20051;-62
2022/11/29 02:57:13;;;;;;;42.03;10.30;;;5.00;99.90;;;;;;5033945;28;20037;-62
2022/11/29 02:59:58;;;;;;;105.90;12.48;;;5.00;99.90;;;;;;5013156;28;20085;-63
2022/11/29 03:02:39;;;;;;;128.75;12.98;;;5.00;99.90;;;;;;5014537;28;20046;-63
2022/11/29 03:05:15;;;;;;;191.40;15.63;;;4.90;99.90;;;;;;5023669;28;20045;-63
2022/11/29 03:08:06;;;;;;;132.48;14.38;;;4.90;99.90;;;;;;5030445;28;20049;-62
2022/11/29 03:11:08;;;;;;;135.63;13.05;;;4.90;99.90;;;;;;5032618;28;20046;-63
2022/11/29 03:14:01;;;;;;;179.20;13.75;;;4.90;99.90;;;;;;5023689;28;20045;-76
2022/11/29 03:16:41;;;;;;;163.93;13.73;;;4.90;99.90;;;;;;5012294;28;20061;-86
2022/11/29 03:19:12;;;;;;;154.98;15.68;;;4.90;99.90;;;;;;5032107;28;20396;-81
2022/11/29 03:22:05;;;;;;;180.13;14.63;;;4.90;99.90;;;;;;5015744;28;20513;-84
2022/11/29 03:24:46;;;;;;;191.95;14.88;;;4.90;99.90;;;;;;5013984;28;20155;-82
2022/11/29 03:27:43;;;;;;;162.25;14.07;;;4.90;99.90;;;;;;5015951;28;20493;-83
2022/11/29 03:30:13;;;;;;;151.75;14.98;;;4.90;99.90;;;;;;5013768;28;20046;-86
2022/11/29 03:32:59;;;;;;;127.30;14.77;;;4.90;99.90;;;;;;5013523;28;20061;-83
2022/11/29 03:35:46;;;;;;;105.60;12.30;;;4.90;99.90;;;;;;5013609;28;20049;-84
2022/11/29 03:38:37;;;;;;;126.25;14.35;;;4.90;99.90;;;;;;5020235;28;20375;-85
2022/11/29 03:41:38;;;;;;;126.72;12.27;;;4.90;99.90;;;;;;5013775;28;20049;-86
2022/11/29 03:44:24;;;;;;;103.78;12.95;;;4.90;99.90;;;;;;5022919;28;20061;-86
2022/11/29 03:46:58;;;;;;;114.75;13.13;;;4.90;99.90;;;;;;5030115;28;20049;-88
2022/11/29 03:49:37;;;;;;;82.50;12.32;;;4.90;99.90;;;;;;5019159;28;20525;-87
2022/11/29 03:52:16;;;;;;;91.80;11.73;;;4.90;99.90;;;;;;5032285;28;20046;-87
2022/11/29 03:54:55;;;;;;;101.53;12.25;;;4.90;99.90;;;;;;5028958;28;20817;-78
2022/11/29 03:57:35;;;;;;;98.25;14.65;;;4.90;99.90;;;;;;5024452;28;20056;-78
2022/11/29 04:00:07;;;;;;;139.23;16.17;;;5.00;99.90;;;;;;5018360;28;20045;-76
2022/11/29 04:02:56;;;;;;;89.45;13.25;;;5.00;99.90;;;;;;5024833;28;20037;-72
2022/11/29 04:05:36;;;;;;;111.18;14.20;;;5.00;99.90;;;;;;5014137;28;20054;-69
2022/11/29 04:08:03;;;;;;;;;;;5.00;99.90;;;;;;5030979;28;20559;-65
2022/11/29 04:10:55;;;;;;;94.07;15.65;;;5.00;99.90;;;;;;5024226;28;19925;-64
2022/11/29 04:13:51;;;;;;;96.53;13.27;;;5.00;99.90;;;;;;5026853;28;20061;-62
2022/11/29 04:16:24;;;;;;;142.73;14.38;;;5.00;99.90;;;;;;5013038;28;20426;-63
2022/11/29 04:19:17;;;;;;;95.28;15.55;;;5.00;99.90;;;;;;5024658;28;20052;-62
2022/11/29 04:22:09;;;;;;;98.90;15.75;;;5.00;99.90;;;;;;5025619;28;20065;-63
2022/11/29 04:25:05;;;;;;;93.97;14.68;;;5.00;99.90;;;;;;5012359;28;20045;-63
2022/11/29 04:27:42;;;;;;;67.75;14.63;;;5.00;99.90;;;;;;5012334;28;20048;-63
2022/11/29 04:30:15;;;;;;;117.35;15.07;;;5.00;99.90;;;;;;5015890;28;20064;-63
2022/11/29 04:33:06;;;;;;;115.22;16.27;;;5.00;99.90;;;;;;5029066;28;20041;-64
2022/11/29 04:35:36;;;;;;;126.68;15.38;;;5.10;99.90;;;;;;5019830;28;20038;-63
2022/11/29 04:38:27;;;;;;;96.30;16.00;;;5.00;99.90;;;;;;5020963;28;20054;-68
2022/11/29 04:41:26;;;;;;;132.90;15.57;;;5.10;99.90;;;;;;5021791;28;20501;-62
2022/11/29 04:44:16;;;;;;;120.07;16.95;;;5.10;99.90;;;;;;5030552;28;20041;-63
2022/11/29 04:46:47;;;;;;;136.07;16.42;;;5.10;99.90;;;;;;5021953;28;20053;-62
2022/11/29 04:49:33;;;;;;;145.88;16.55;;;5.10;99.90;;;;;;5027624;28;20046;-63
2022/11/29 04:52:19;;;;;;;143.52;16.40;;;5.10;99.90;;;;;;5012342;28;20489;-64
2022/11/29 04:54:47;;;;;;;199.30;19.65;;;5.10;99.90;;;;;;5024229;28;20053;-63
2022/11/29 04:57:17;;;;;;;149.88;16.90;;;5.10;99.90;;;;;;5022147;28;20397;-66
2022/11/29 05:00:12;;;;;;;141.10;17.73;;;5.10;99.90;;;;;;5012461;28;20060;-65
2022/11/29 05:02:40;;;;;;;151.38;16.58;;;5.10;99.90;;;;;;5024424;28;20053;-63
2022/11/29 05:05:36;;;;;;;218.43;20.50;;;5.10;99.90;;;;;;5027128;28;20326;-64
2022/11/29 05:08:26;;;;;;;143.68;18.52;;;5.10;99.90;;;;;;5039360;28;20038;-63
2022/11/29 05:11:02;;;;;;;115.85;16.35;;;5.10;99.90;;;;;;5029052;28;20396;-63
2022/11/29 05:13:37;;;;;;;107.57;15.45;;;5.10;99.90;;;;;;5030097;28;20041;-62
2022/11/29 05:16:34;;;;;;;163.68;18.52;;;5.10;99.90;;;;;;5020788;28;20052;-62
2022/11/29 05:19:44;;;;;;;171.13;17.85;;;5.10;99.90;;;;;;5030549;28;20057;-63
2022/11/29 05:22:28;;;;;;;120.38;14.73;;;5.20;99.90;;;;;;5030170;28;20061;-63
2022/11/29 05:25:04;;;;;;;191.60;15.88;;;5.20;99.90;;;;;;5028236;28;20032;-75
2022/11/29 05:27:51;;;;;;;90.45;13.00;;;5.20;99.90;;;;;;5016573;28;20072;-63
2022/11/29 05:30:21;;;;;;;140.45;16.15;;;5.20;99.90;;;;;;5030535;28;20037;-63
2022/11/29 05:33:04;;;;;;;98.93;15.65;;;5.20;99.90;;;;;;5027878;28;20061;-62
2022/11/29 05:35:34;;;;;;;156.32;16.65;;;5.20;99.90;;;;;;5029534;28;20045;-63
2022/11/29 05:38:16;;;;;;;156.15;14.70;;;5.20;99.90;;;;;;5043647;28;20041;-63
2022/11/29 05:41:19;;;;;;;106.00;13.38;;;5.20;99.90;;;;;;5013340;28;20050;-63
2022/11/29 05:44:12;;;;;;;91.45;14.55;;;5.20;99.90;;;;;;5025454;28;20042;-63
2022/11/29 05:46:57;;;;;;;110.97;13.45;;;5.20;99.90;;;;;;5022686;28;20057;-76
2022/11/29 05:49:46;;;;;;;111.65;14.05;;;5.20;99.90;;;;;;5007991;28;20371;-67
2022/11/29 05:52:24;;;;;;;101.93;14.50;;;5.20;99.90;;;;;;5025102;28;20057;-73
2022/11/29 05:55:12;;;;;;;104.72;14.18;;;5.20;99.90;;;;;;5008826;28;20881;-75
2022/11/29 05:58:18;;;;;;;113.40;14.20;;;5.20;99.90;;;;;;5012891;28;20041;-64
2022/11/29 06:01:00;;;;;;;95.10;14.13;;;5.20;99.90;;;;;;5020745;28;20045;-67
2022/11/29 06:03:56;;;;;;;73.32;12.20;;;5.20;99.90;;;;;;5010785;28;20064;-80
2022/11/29 06:06:54;;;;;;;95.25;13.88;;;5.20;99.90;;;;;;5013723;28;20041;-79
2022/11/29 06:09:57;;;;;;;74.72;13.10;;;5.20;99.90;;;;;;5023316;28;20049;-78
2022/11/29 06:12:34;;;;;;;65.53;13.40;;;5.20;99.90;;;;;;5007222;28;20052;-80
2022/11/29 06:15:22;;;;;;;63.00;13.30;;;5.10;99.90;;;;;;5011130;28;20057;-74
2022/11/29 06:18:01;;;;;;;63.70;13.35;;;5.20;99.90;;;;;;5017975;28;20489;-75
2022/11/29 06:20:31;;;;;;;61.90;13.13;;;5.10;99.90;;;;;;5010098;28;20042;-75
2022/11/29 06:23:22;;;;;;;48.72;11.95;;;5.20;99.90;;;;;;5026728;28;20053;-75
2022/11/29 06:26:16;;;;;;;56.50;12.75;;;5.20;99.90;;;;;;5029954;28;20045;-78
2022/11/29 06:29:04;;;;;;;63.88;13.32;;;5.20;99.90;;;;;;5027689;28;20038;-77
2022/11/29 06:31:42;;;;;;;64.47;12.93;;;5.20;99.90;;;;;;5031386;28;20068;-75
2022/11/29 06:34:28;;;;;;;48.03;11.55;;;5.20;99.90;;;;;;5038458;28;20041;-72
2022/11/29 06:37:30;;;;;;;52.20;11.02;;;5.30;99.90;;;;;;5036390;28;20052;-74
2022/11/29 06:39:58;;;;;;;57.17;11.52;;;5.30;99.90;;;;;;5031019;28;20501;-73
2022/11/29 06:42:26;;;;;;;50.92;11.50;;;5.30;99.90;;;;;;5029126;28;20046;-65
2022/11/29 06:44:53;;;;;;;52.83;10.82;;;5.30;99.90;;;;;;5008463;28;20049;-66
2022/11/29 06:47:31;;;;;;;51.38;11.25;;;5.30;99.90;;;;;;5013460;28;20053;-65
2022/11/29 06:50:40;;;;;;;53.95;11.35;;;5.30;99.90;;;;;;5020448;28;20485;-67
2022/11/29 06:53:18;;;;;;;51.10;10.80;;;5.30;99.90;;;;;;5008637;28;20515;-63
2022/11/29 06:55:50;;;;;;;53.53;11.35;;;5.20;99.90;;;;;;5008211;28;20054;-63
2022/11/29 06:58:35;;;;;;;56.70;13.10;;;5.20;99.90;;;;;;5009797;28;20041;-64
2022/11/29 07:01:34;;;;;;;54.83;13.93;;;5.20;99.90;;;;;;5009281;28;20045;-64
2022/11/29 07:04:30;;;;;;;55.55;12.60;;;5.20;99.90;;;;;;5012939;28;20045;-64
2022/11/29 07:06:58;;;;;;;60.08;11.98;;;5.20;99.90;;;;;;5029960;28;20048;-62
2022/11/29 07:09:32;;;;;;;60.42;13.27;;;5.20;99.90;;;;;;5030240;28;20069;-65
2022/11/29 07:12:00;;;;;;;71.32;14.38;;;5.20;99.90;;;;;;5013966;28;20042;-63
2022/11/29 07:14:30;;;;;;;71.05;15.23;;;5.30;99.90;;;;;;5016586;28;20061;-64
2022/11/29 07:17:01;;;;;;;67.78;16.38;;;5.30;99.90;;;;;;5021316;28;20050;-65
2022/11/29 07:20:03;;;;;;;56.58;12.55;;;5.30;99.90;;;;;;5013834;28;20053;-63
2022/11/29 07:22:54;;;;;;;62.13;14.10;;;5.30;99.90;;;;;;5018044;28;20061;-63
2022/11/29 07:25:42;;;;;;;80.57;13.65;;;5.30;99.90;;;;;;5016280;28;20053;-62
2022/11/29 07:28:45;;;;;;;92.43;15.45;;;5.30;99.90;;;;;;5029636;28;20041;-67
2022/11/29 07:31:58;;;;;;;133.38;16.08;;;5.30;99.90;;;;;;5017428;28;20064;-62
2022/11/29 07:34:38;;;;;;;123.93;15.77;;;5.30;99.90;;;;;;5031328;28;20520;-64
2022/11/29 07:37:40;;;;;;;125.70;16.02;;;5.30;99.90;;;;;;5031535;28;20511;-62
2022/11/29 07:40:36;;;;;;;169.07;16.27;;;5.30;99.90;;;;;;5017865;28;20415;-65
2022/11/29 07:43:26;;;;;;;149.65;19.23;;;5.30;99.90;;;;;;5029080;28;20447;-62
2022/11/29 07:45:56;;;;;;;198.18;18.80;;;5.30;99.90;;;;;;5017856;28;20485;-63
2022/11/29 07:48:23;;;;;;;121.63;16.77;;;5.30;99.90;;;;;;5027217;28;20052;-63
2022/11/29 07:50:51;;;;;;;186.05;18.25;;;5.40;99.90;;;;;;5021128;28;20049;-63
2022/11/29 07:53:29;;;;;;;159.02;17.15;;;5.30;99.90;;;;;;5049615;28;20050;-63
2022/11/29 07:55:57;;;;;;;130.23;16.60;;;5.30;99.90;;;;;;5014570;28;20049;-63
2022/11/29 07:58:25;;;;;;;140.48;14.68;;;5.30;99.90;;;;;;5022775;28;20049;-63
2022/11/29 08:00:53;;;;;;;156.60;16.33;;;;;;;;;;5019781;28;20630;-63
2022/11/29 08:03:21;;;;;;;195.45;16.02;;;5.40;99.90;;;;;;5023258;28;20054;-63
2022/11/29 08:05:49;;;;;;;157.38;17.88;;;5.40;99.90;;;;;;5004760;28;20053;-62
2022/11/29 08:08:17;;;;;;;180.90;18.20;;;5.40;99.90;;;;;;5020889;28;20037;-63
2022/11/29 08:10:44;;;;;;;179.13;19.10;;;5.40;99.90;;;;;;5022109;28;20045;-66
2022/11/29 08:13:13;;;;;;;208.35;17.25;;;5.40;99.90;;;;;;5011318;28;20385;-65
2022/11/29 08:15:47;;;;;;;158.68;17.80;;;5.40;99.90;;;;;;5016605;28;20045;-66
2022/11/29 08:18:16;;;;;;;154.98;18.05;;;5.40;99.90;;;;;;5015871;28;20045;-63
2022/11/29 08:20:45;;;;;;;121.55;19.00;;;5.40;99.90;;;;;;5027991;28;20041;-63
2022/11/29 08:23:13;;;;;;;93.28;15.32;;;5.40;99.90;;;;;;5017294;28;20045;-73
2022/11/29 08:25:41;;;;;;;94.72;13.43;;;5.40;99.90;;;;;;5018420;28;20057;-70
2022/11/29 08:28:09;;;;;;;114.72;14.88;;;5.30;99.90;;;;;;5011323;28;20052;-70
2022/11/29 08:30:37;;;;;;;104.25;15.30;;;5.30;99.90;;;;;;5012787;28;20049;-71
2022/11/29 08:33:05;;;;;;;113.38;16.40;;;5.20;99.90;;;;;;5015621;28;20053;-74
2022/11/29 08:35:34;;;;;;;121.30;16.20;;;5.20;99.90;;;;;;5018738;28;20057;-71
2022/11/29 08:38:03;;;;;;;87.80;15.98;;;5.20;99.90;;;;;;5012151;28;20053;-73
2022/11/29 08:40:31;;;;;;;147.50;18.02;;;5.20;99.90;;;;;;5015091;28;20045;-64
2022/11/29 08:42:59;;;;;;;100.85;17.20;;;5.30;99.90;;;;;;5021236;28;20056;-68
2022/11/29 08:45:26;;;;;;;90.47;16.33;;;5.30;99.90;;;;;;5013249;28;20052;-66
2022/11/29 08:47:54;;;;;;;117.80;18.25;;;5.30;99.90;;;;;;5016981;28;20520;-78
2022/11/29 08:50:22;;;;;;;104.97;16.98;;;5.30;99.90;;;;;;5020949;28;21890;-64
2022/11/29 08:55:41;;;;;;;117.65;16.25;;;5.30;99.90;;;;;;5015794;28;20046;-81
2022/11/29 08:58:12;;;;;;;122.93;14.20;;;5.20;99.90;;;;;;5016213;28;20038;-77
2022/11/29 09:00:42;;;;;;;117.90;13.45;;;5.30;99.90;;;;;;5008507;28;20049;-78
2022/11/29 09:05:56;;;;;;;179.35;16.27;;;5.30;99.90;;;;;;5019407;28;20418;-80
2022/11/29 09:08:24;;;;;;;170.60;16.27;;;5.30;99.90;;;;;;5029687;28;20083;-72
2022/11/29 09:10:52;;;;;;;207.18;15.50;;;5.30;99.90;;;;;;5033266;28;20049;-71
2022/11/29 09:13:19;;;;;;;210.43;16.10;;;5.30;99.90;;;;;;5018577;28;22917;-63
2022/11/29 09:15:47;;;;;;;222.20;19.00;;;5.40;99.90;;;;;;5025714;28;20087;-67
2022/11/29 09:18:15;;;;;;;193.82;17.90;;;5.40;99.90;;;;;;5020146;28;20045;-66
2022/11/29 09:20:43;;;;;;;190.65;19.30;;;5.40;99.90;;;;;;5008489;28;20046;-72
2022/11/29 09:23:12;;;;;;;124.15;14.32;;;5.40;99.90;;;;;;5017358;28;20480;-66
2022/11/29 09:25:39;;;;;;;142.82;16.38;;;5.40;99.90;;;;;;5014390;28;20048;-70
2022/11/29 09:28:07;;;;;;;105.93;14.27;;;5.50;99.90;;;;;;5011038;28;20140;-67
2022/11/29 09:30:36;;;;;;;106.22;14.23;;;5.50;99.90;;;;;;5049652;28;20042;-64
2022/11/29 09:33:04;;;;;;;82.95;13.73;;;5.60;99.90;;;;;;5015848;28;20046;-63
2022/11/29 09:35:33;;;;;;;115.72;14.52;;;5.60;99.90;;;;;;5014758;28;20045;-63
2022/11/29 09:38:01;;;;;;;144.30;16.75;;;5.60;99.90;;;;;;5017101;28;20042;-64
2022/11/29 09:40:44;;;;;;;122.32;12.75;;;5.70;99.90;;;;;;5016099;28;20050;-74
2022/11/29 09:43:28;;;;;;;255.15;19.67;;;5.60;99.90;;;;;;5013088;28;20402;-65
2022/11/29 09:46:14;;;;;;;104.13;14.82;;;5.70;99.90;;;;;;5022755;28;20045;-64
2022/11/29 09:49:00;;;;;;;81.45;13.13;;;5.80;99.90;;;;;;5018471;28;20037;-64
2022/11/29 09:52:03;;;;;;;82.45;16.70;;;5.80;99.90;;;;;;5016971;28;20046;-63
2022/11/29 09:54:57;;;;;;;84.72;17.05;;;5.90;99.90;;;;;;5023580;28;20500;-65
2022/11/29 09:57:28;;;;;;;76.10;13.40;;;5.90;99.90;;;;;;5028122;28;20060;-64
2022/11/29 10:00:04;;;;;;;74.03;13.90;;;6.00;99.90;;;;;;5030377;28;20050;-64
2022/11/29 10:02:44;;;;;;;70.85;12.10;;;6.10;99.90;;;;;;5040021;28;20038;-64
2022/11/29 10:05:34;;;;;;;49.40;12.35;;;6.10;99.90;;;;;;5021231;28;20393;-63
2022/11/29 10:08:13;;;;;;;;;;;6.10;99.90;;;;;;5038161;28;20045;-75
2022/11/29 10:10:46;;;;;;;45.88;11.48;;;6.10;99.90;;;;;;5026750;28;19932;-63
2022/11/29 10:13:24;;;;;;;64.35;10.60;;;6.10;99.90;;;;;;5020608;28;20045;-70
2022/11/29 10:16:09;;;;;;;57.35;11.20;;;6.20;99.90;;;;;;5009885;28;20053;-64
2022/11/29 10:18:45;;;;;;;55.22;10.88;;;6.20;99.90;;;;;;5016251;28;20042;-66
2022/11/29 10:21:28;;;;;;;47.83;12.30;;;6.20;99.90;;;;;;5006305;28;20057;-65
2022/11/29 10:24:08;;;;;;;42.78;12.45;;;6.20;99.90;;;;;;5015698;28;20408;-63
2022/11/29 10:26:36;;;;;;;49.05;12.27;;;6.20;99.90;;;;;;5001887;28;20060;-64
2022/11/29 10:29:04;;;;;;;49.88;13.18;;;6.30;99.90;;;;;;5009244;28;20038;-69
2022/11/29 10:31:42;;;;;;;56.95;13.73;;;6.30;99.90;;;;;;5011863;28;20046;-65
2022/11/29 10:34:18;;;;;;;48.75;12.15;;;6.30;99.90;;;;;;5019007;28;20049;-71
2022/11/29 10:36:53;;;;;;;39.38;11.50;;;6.40;99.90;;;;;;5014950;28;20045;-64
2022/11/29 10:39:59;;;;;;;42.45;10.55;;;6.40;99.90;;;;;;5006039;28;20037;-63
2022/11/29 10:45:30;;;;;;;41.30;10.25;;;6.40;99.90;;;;;;5013035;28;20060;-63
2022/11/29 10:48:02;;;;;;;40.42;10.73;;;6.40;99.90;;;;;;5017561;28;20053;-63
2022/11/29 10:50:33;;;;;;;44.45;11.32;;;6.50;99.90;;;;;;5011331;28;20046;-63
2022/11/29 10:53:12;;;;;;;41.88;11.68;;;6.50;99.90;;;;;;5015627;28;20417;-63
2022/11/29 10:55:49;;;;;;;48.22;12.48;;;6.50;99.90;;;;;;5008441;28;20049;-76
2022/11/29 10:58:25;;;;;;;43.58;13.95;;;6.50;99.90;;;;;;5022250;28;20061;-72
2022/11/29 11:01:06;;;;;;;40.85;11.90;;;6.50;99.90;;;;;;5018455;28;20209;-71
2022/11/29 11:03:41;;;;;;;60.83;15.70;;;6.60;99.90;;;;;;5030960;28;20527;-77
2022/11/29 11:06:43;;;;;;;70.32;17.55;;;6.60;99.90;;;;;;5022123;28;20528;-76
2022/11/29 11:09:34;;;;;;;68.28;20.50;;;6.70;99.90;;;;;;5023350;28;20053;-76
2022/11/29 11:12:29;;;;;;;59.13;17.17;;;6.70;99.90;;;;;;5011253;28;20050;-75
2022/11/29 11:15:27;;;;;;;54.47;16.75;;;6.80;99.90;;;;;;5033887;28;20049;-74
2022/11/29 11:17:57;;;;;;;49.58;17.30;;;6.80;99.90;;;;;;5029620;28;20053;-75
2022/11/29 11:20:28;;;;;;;44.55;14.23;;;6.90;99.90;;;;;;5014270;28;20065;-76
2022/11/29 11:23:05;;;;;;;38.67;11.38;;;6.90;99.90;;;;;;5011994;28;20085;-76
2022/11/29 11:25:38;;;;;;;24.23;8.95;;;6.90;99.90;;;;;;5048624;28;20047;-73
2022/11/29 11:28:20;;;;;;;27.23;8.82;;;7.00;99.90;;;;;;5023559;28;20437;-77
2022/11/29 11:30:58;;;;;;;20.25;8.32;;;7.10;99.90;;;;;;5020733;28;20049;-78
2022/11/29 11:33:30;;;;;;;28.27;10.70;;;7.10;99.90;;;;;;5027259;28;20041;-71
2022/11/29 11:36:19;;;;;;;28.08;10.68;;;7.10;99.90;;;;;;5013913;28;20076;-67
2022/11/29 11:39:11;;;;;;;26.42;10.20;;;7.20;99.90;;;;;;5025820;28;20400;-69
2022/11/29 11:44:48;;;;;;;30.77;12.23;;;7.20;99.90;;;;;;5035194;28;20392;-74
2022/11/29 11:47:26;;;;;;;37.17;12.10;;;7.30;99.90;;;;;;5002525;28;20056;-69
2022/11/29 11:50:02;;;;;;;27.08;11.52;;;7.30;99.90;;;;;;5012697;28;20053;-63
2022/11/29 11:52:53;;;;;;;33.50;11.98;;;7.30;99.90;;;;;;5008115;28;20050;-68
2022/11/29 11:55:21;;;;;;;;;;;7.30;99.90;;;;;;5028790;28;20045;-63
2022/11/29 11:58:13;;;;;;;31.25;12.02;;;7.30;99.90;;;;;;5021984;28;20122;-67
2022/11/29 12:00:48;;;;;;;31.85;13.15;;;7.30;99.90;;;;;;5044555;28;20045;-63
2022/11/29 12:04:03;;;;;;;31.58;12.27;;;7.30;99.90;;;;;;5023670;28;20056;-66
2022/11/29 12:06:31;;;;;;;28.17;12.05;;;7.30;99.90;;;;;;5017418;28;20052;-77
2022/11/29 12:09:07;;;;;;;40.22;14.73;;;7.20;99.90;;;;;;5029451;28;20038;-69
2022/11/29 12:12:08;;;;;;;30.65;11.75;;;7.20;99.90;;;;;;5027651;28;20057;-77
2022/11/29 12:14:56;;;;;;;21.52;9.85;;;7.30;99.90;;;;;;5025964;28;20049;-74
2022/11/29 12:17:32;;;;;;;27.55;11.50;;;7.20;99.90;;;;;;5017131;28;20054;-75
2022/11/29 12:20:22;;;;;;;25.45;11.57;;;7.20;99.90;;;;;;5018648;28;20049;-76
2022/11/29 12:23:10;;;;;;;29.08;12.30;;;7.20;99.90;;;;;;5015990;28;20504;-76
2022/11/29 12:26:03;;;;;;;32.53;12.63;;;7.20;99.90;;;;;;5010222;28;20041;-77
2022/11/29 12:28:33;;;;;;;29.95;13.50;;;7.20;99.90;;;;;;5019260;28;20489;-74
2022/11/29 12:31:33;;;;;;;33.63;12.82;;;7.20;99.90;;;;;;5014476;28;20042;-76
2022/11/29 12:34:21;;;;;;;34.63;13.10;;;7.20;99.90;;;;;;5037782;28;20041;-76
2022/11/29 12:37:14;;;;;;;35.20;14.98;;;7.20;99.90;;;;;;5040796;28;20072;-67
2022/11/29 12:40:10;;;;;;;38.47;14.48;;;7.10;99.90;;;;;;5017158;28;20046;-64
2022/11/29 12:43:00;;;;;;;34.28;14.73;;;7.10;99.90;;;;;;5017755;28;20046;-69
2022/11/29 12:45:39;;;;;;;32.63;13.65;;;7.00;99.90;;;;;;5037102;28;20401;-63
2022/11/29 12:48:31;;;;;;;31.50;13.93;;;7.00;99.90;;;;;;5025735;28;20053;-65
2022/11/29 12:51:05;;;;;;;40.80;19.45;;;7.00;99.90;;;;;;5028874;28;20291;-63
2022/11/29 12:54:03;;;;;;;34.97;17.65;;;7.00;99.90;;;;;;5024357;28;20054;-66
2022/11/29 12:56:40;;;;;;;38.60;16.52;;;7.00;99.90;;;;;;5014001;28;20050;-63
2022/11/29 12:59:20;;;;;;;37.20;14.40;;;7.00;99.90;;;;;;5017583;28;20619;-63
2022/11/29 13:02:00;;;;;;;41.30;15.57;;;6.90;99.90;;;;;;5021956;28;20046;-67
2022/11/29 13:04:42;;;;;;;38.17;15.32;;;6.90;99.90;;;;;;5019413;28;20054;-63
2022/11/29 13:07:25;;;;;;;40.17;14.55;;;6.90;99.90;;;;;;5033713;28;20397;-64
2022/11/29 13:10:02;;;;;;;38.10;15.00;;;6.80;99.90;;;;;;5025143;28;20048;-66
2022/11/29 13:12:52;;;;;;;57.25;17.52;;;6.70;99.90;;;;;;5022739;28;20040;-63
2022/11/29 13:15:40;;;;;;;46.22;15.68;;;6.70;99.90;;;;;;5011688;28;20037;-64
2022/11/29 13:18:25;;;;;;;45.13;15.13;;;6.70;99.90;;;;;;5016339;28;20053;-68
2022/11/29 13:21:08;;;;;;;41.08;15.80;;;6.70;99.90;;;;;;5022732;28;20052;-65
2022/11/29 13:23:53;;;;;;;38.15;14.82;;;6.70;99.90;;;;;;5017723;28;20049;-63
2022/11/29 13:26:39;;;;;;;42.28;14.93;;;6.70;99.90;;;;;;5026115;28;20052;-64
2022/11/29 13:29:11;;;;;;;;;;;6.70;99.90;;;;;;5024539;28;20045;-63
2022/11/29 13:31:39;;;;;;;44.63;14.98;;;6.60;99.90;;;;;;5023169;28;19928;-63
2022/11/29 13:34:31;;;;;;;42.28;13.70;;;6.60;99.90;;;;;;5019591;28;20045;-65
2022/11/29 13:37:08;;;;;;;35.08;13.55;;;6.60;99.90;;;;;;5025097;28;20163;-63
2022/11/29 13:39:56;;;;;;;33.90;12.10;;;6.60;99.90;;;;;;5008591;28;20050;-67
2022/11/29 13:42:33;;;;;;;34.92;13.65;;;6.60;99.90;;;;;;5007485;28;20045;-70
2022/11/29 13:45:06;;;;;;;39.60;12.65;;;6.60;99.90;;;;;;5021402;28;20046;-73
2022/11/29 13:47:50;;;;;;;42.15;12.90;;;6.60;99.90;;;;;;5018754;28;20052;-76
2022/11/29 13:50:42;;;;;;;27.45;10.55;;;6.60;99.90;;;;;;5018038;28;20469;-68